sensor_id;sensor_type;location;lat;lon;timestamp;pressure;altitude;pressure_sealevel;temperature;humidity
21706;BME280;11014;53.076;18.208;2023-03-14T00:01:57;99172.09;;;15.10;67.97
21706;BME280;11014;53.076;18.208;2023-03-14T00:04:29;99177.50;;;15.10;68.04
21706;BME280;11014;53.076;18.208;2023-03-14T00:06:58;99176.94;;;15.13;67.61
21706;BME280;11014;53.076;18.208;2023-03-14T00:09:26;99176.41;;;15.11;67.67
21706;BME280;11014;53.076;18.208;2023-03-14T00:11:56;99180.72;;;15.12;67.65
21706;BME280;11014;53.076;18.208;2023-03-14T00:14:25;99191.13;;;15.05;67.97
21706;BME280;11014;53.076;18.208;2023-03-14T00:16:53;99181.53;;;15.13;67.42
21706;BME280;11014;53.076;18.208;2023-03-14T00:19:22;99182.94;;;15.10;67.52
21706;BME280;11014;53.076;18.208;2023-03-14T00:21:51;99187.88;;;15.03;67.45
21706;BME280;11014;53.076;18.208;2023-03-14T00:24:19;99181.66;;;15.03;67.91
21706;BME280;11014;53.076;18.208;2023-03-14T00:26:48;99181.88;;;15.06;67.59
21706;BME280;11014;53.076;18.208;2023-03-14T00:29:16;99181.97;;;15.01;67.18
21706;BME280;11014;53.076;18.208;2023-03-14T00:31:46;99175.97;;;15.04;67.08
21706;BME280;11014;53.076;18.208;2023-03-14T00:34:14;99183.00;;;15.05;67.16
21706;BME280;11014;53.076;18.208;2023-03-14T00:36:44;99187.28;;;15.06;67.19
21706;BME280;11014;53.076;18.208;2023-03-14T00:39:13;99198.13;;;15.06;66.92
21706;BME280;11014;53.076;18.208;2023-03-14T00:41:42;99188.09;;;15.07;66.69
21706;BME280;11014;53.076;18.208;2023-03-14T00:44:11;99175.75;;;15.01;67.04
21706;BME280;11014;53.076;18.208;2023-03-14T00:46:43;99173.38;;;14.99;66.63
21706;BME280;11014;53.076;18.208;2023-03-14T00:49:12;99178.38;;;15.06;66.50
21706;BME280;11014;53.076;18.208;2023-03-14T00:51:41;99166.91;;;14.95;67.14
21706;BME280;11014;53.076;18.208;2023-03-14T00:54:11;99162.47;;;15.04;66.78
21706;BME280;11014;53.076;18.208;2023-03-14T00:56:41;99163.47;;;15.08;66.62
21706;BME280;11014;53.076;18.208;2023-03-14T00:59:09;99161.28;;;15.10;66.42
21706;BME280;11014;53.076;18.208;2023-03-14T01:01:39;99151.66;;;15.04;66.37
21706;BME280;11014;53.076;18.208;2023-03-14T01:04:08;99150.63;;;15.00;66.65
21706;BME280;11014;53.076;18.208;2023-03-14T01:06:37;99140.91;;;14.99;66.63
21706;BME280;11014;53.076;18.208;2023-03-14T01:09:14;99136.38;;;14.95;66.39
21706;BME280;11014;53.076;18.208;2023-03-14T01:11:46;99128.78;;;14.97;66.38
21706;BME280;11014;53.076;18.208;2023-03-14T01:14:17;99133.97;;;14.93;66.39
21706;BME280;11014;53.076;18.208;2023-03-14T01:16:46;99128.94;;;14.87;66.50
21706;BME280;11014;53.076;18.208;2023-03-14T01:19:14;99128.06;;;14.91;66.51
21706;BME280;11014;53.076;18.208;2023-03-14T01:21:45;99127.75;;;14.93;66.51
21706;BME280;11014;53.076;18.208;2023-03-14T01:24:16;99129.31;;;14.80;66.63
21706;BME280;11014;53.076;18.208;2023-03-14T01:26:44;99125.22;;;14.82;66.23
21706;BME280;11014;53.076;18.208;2023-03-14T01:29:14;99123.34;;;14.83;66.30
21706;BME280;11014;53.076;18.208;2023-03-14T01:31:44;99115.88;;;14.75;66.72
21706;BME280;11014;53.076;18.208;2023-03-14T01:34:13;99122.38;;;14.74;66.70
21706;BME280;11014;53.076;18.208;2023-03-14T01:36:43;99107.25;;;14.73;66.75
21706;BME280;11014;53.076;18.208;2023-03-14T01:39:12;99117.47;;;14.76;66.63
21706;BME280;11014;53.076;18.208;2023-03-14T01:41:42;99105.13;;;14.70;66.67
21706;BME280;11014;53.076;18.208;2023-03-14T01:44:11;99112.66;;;14.73;66.54
21706;BME280;11014;53.076;18.208;2023-03-14T01:46:44;99111.16;;;14.67;66.94
21706;BME280;11014;53.076;18.208;2023-03-14T01:49:30;99107.91;;;14.65;67.09
21706;BME280;11014;53.076;18.208;2023-03-14T01:52:13;99105.81;;;14.62;67.14
21706;BME280;11014;53.076;18.208;2023-03-14T01:55:14;99104.13;;;14.66;66.89
21706;BME280;11014;53.076;18.208;2023-03-14T01:57:48;99089.66;;;14.75;66.87
21706;BME280;11014;53.076;18.208;2023-03-14T02:00:21;99086.66;;;14.77;66.69
21706;BME280;11014;53.076;18.208;2023-03-14T02:03:02;99072.84;;;14.78;66.71
21706;BME280;11014;53.076;18.208;2023-03-14T02:05:38;99068.16;;;14.84;66.80
21706;BME280;11014;53.076;18.208;2023-03-14T02:08:14;99057.06;;;14.86;67.05
21706;BME280;11014;53.076;18.208;2023-03-14T02:10:55;99051.97;;;14.98;66.58
21706;BME280;11014;53.076;18.208;2023-03-14T02:13:39;99061.06;;;14.88;66.79
21706;BME280;11014;53.076;18.208;2023-03-14T02:16:37;99043.59;;;14.99;66.86
21706;BME280;11014;53.076;18.208;2023-03-14T02:19:53;99042.69;;;15.04;66.89
21706;BME280;11014;53.076;18.208;2023-03-14T02:22:40;99052.09;;;15.06;66.86
21706;BME280;11014;53.076;18.208;2023-03-14T02:25:24;99052.28;;;14.96;67.44
21706;BME280;11014;53.076;18.208;2023-03-14T02:27:57;99048.31;;;15.07;67.24
21706;BME280;11014;53.076;18.208;2023-03-14T02:30:30;99052.94;;;15.20;67.38
21706;BME280;11014;53.076;18.208;2023-03-14T02:33:04;99037.91;;;15.41;67.21
21706;BME280;11014;53.076;18.208;2023-03-14T02:35:52;99039.25;;;15.58;66.73
21706;BME280;11014;53.076;18.208;2023-03-14T02:38:31;99040.38;;;15.57;66.36
21706;BME280;11014;53.076;18.208;2023-03-14T02:41:06;99035.84;;;15.66;66.56
21706;BME280;11014;53.076;18.208;2023-03-14T02:44:05;99050.78;;;15.50;66.85
21706;BME280;11014;53.076;18.208;2023-03-14T02:46:35;99043.94;;;15.79;66.04
21706;BME280;11014;53.076;18.208;2023-03-14T02:49:07;99040.84;;;15.86;66.26
21706;BME280;11014;53.076;18.208;2023-03-14T02:51:38;99045.56;;;15.67;66.72
21706;BME280;11014;53.076;18.208;2023-03-14T02:54:08;99052.06;;;15.79;66.72
21706;BME280;11014;53.076;18.208;2023-03-14T02:56:36;99060.16;;;15.93;66.30
21706;BME280;11014;53.076;18.208;2023-03-14T02:59:09;99059.78;;;15.99;65.92
21706;BME280;11014;53.076;18.208;2023-03-14T03:01:45;99054.03;;;16.01;66.01
21706;BME280;11014;53.076;18.208;2023-03-14T03:04:13;99059.06;;;15.94;66.39
21706;BME280;11014;53.076;18.208;2023-03-14T03:06:41;99057.38;;;15.98;66.46
21706;BME280;11014;53.076;18.208;2023-03-14T03:09:10;99081.84;;;15.93;66.48
21706;BME280;11014;53.076;18.208;2023-03-14T03:11:39;99068.81;;;15.95;66.80
21706;BME280;11014;53.076;18.208;2023-03-14T03:14:10;99070.41;;;15.96;66.93
21706;BME280;11014;53.076;18.208;2023-03-14T03:16:39;99063.19;;;16.05;66.62
21706;BME280;11014;53.076;18.208;2023-03-14T03:19:07;99075.63;;;16.06;66.56
21706;BME280;11014;53.076;18.208;2023-03-14T03:21:36;99078.63;;;16.05;66.82
21706;BME280;11014;53.076;18.208;2023-03-14T03:24:05;99075.81;;;15.96;66.97
21706;BME280;11014;53.076;18.208;2023-03-14T03:26:36;99073.03;;;15.74;68.61
21706;BME280;11014;53.076;18.208;2023-03-14T03:29:07;99084.16;;;15.86;68.12
21706;BME280;11014;53.076;18.208;2023-03-14T03:31:39;99069.22;;;15.88;68.16
21706;BME280;11014;53.076;18.208;2023-03-14T03:34:07;99068.13;;;15.89;68.04
21706;BME280;11014;53.076;18.208;2023-03-14T03:36:46;99062.59;;;15.94;68.01
21706;BME280;11014;53.076;18.208;2023-03-14T03:39:14;99051.97;;;15.98;67.80
21706;BME280;11014;53.076;18.208;2023-03-14T03:41:43;99038.31;;;16.03;67.85
21706;BME280;11014;53.076;18.208;2023-03-14T03:44:12;99047.66;;;15.97;68.22
21706;BME280;11014;53.076;18.208;2023-03-14T03:46:42;99044.94;;;15.97;68.29
21706;BME280;11014;53.076;18.208;2023-03-14T03:49:10;99048.84;;;15.91;68.59
21706;BME280;11014;53.076;18.208;2023-03-14T03:51:40;99043.31;;;15.96;68.74
21706;BME280;11014;53.076;18.208;2023-03-14T03:54:09;99045.16;;;15.87;69.16
21706;BME280;11014;53.076;18.208;2023-03-14T03:56:39;99045.16;;;15.87;69.45
21706;BME280;11014;53.076;18.208;2023-03-14T03:59:07;99038.50;;;15.93;69.15
21706;BME280;11014;53.076;18.208;2023-03-14T04:01:36;99040.34;;;15.84;69.98
21706;BME280;11014;53.076;18.208;2023-03-14T04:04:05;99036.50;;;15.85;70.09
21706;BME280;11014;53.076;18.208;2023-03-14T04:06:34;99016.06;;;15.92;69.91
21706;BME280;11014;53.076;18.208;2023-03-14T04:09:04;99011.25;;;15.89;69.90
21706;BME280;11014;53.076;18.208;2023-03-14T04:11:57;98994.81;;;15.86;70.02
21706;BME280;11014;53.076;18.208;2023-03-14T04:14:38;98986.81;;;15.81;70.14
21706;BME280;11014;53.076;18.208;2023-03-14T04:17:17;98975.81;;;15.64;71.24
21706;BME280;11014;53.076;18.208;2023-03-14T04:19:47;98970.28;;;15.69;70.89
21706;BME280;11014;53.076;18.208;2023-03-14T04:22:20;98974.38;;;15.66;70.92
21706;BME280;11014;53.076;18.208;2023-03-14T04:24:51;98983.13;;;15.63;71.06
21706;BME280;11014;53.076;18.208;2023-03-14T04:27:22;98982.81;;;15.65;70.96
21706;BME280;11014;53.076;18.208;2023-03-14T04:29:50;98989.44;;;15.59;71.44
21706;BME280;11014;53.076;18.208;2023-03-14T04:32:27;98979.09;;;15.61;71.83
21706;BME280;11014;53.076;18.208;2023-03-14T04:34:57;98981.00;;;15.60;71.86
21706;BME280;11014;53.076;18.208;2023-03-14T04:37:26;98970.38;;;15.64;71.49
21706;BME280;11014;53.076;18.208;2023-03-14T04:39:57;98959.97;;;15.71;71.26
21706;BME280;11014;53.076;18.208;2023-03-14T04:42:33;98960.47;;;15.73;70.90
21706;BME280;11014;53.076;18.208;2023-03-14T04:45:01;98956.75;;;15.69;71.31
21706;BME280;11014;53.076;18.208;2023-03-14T04:47:32;98948.13;;;15.67;71.02
21706;BME280;11014;53.076;18.208;2023-03-14T04:50:02;98955.59;;;15.48;71.23
21706;BME280;11014;53.076;18.208;2023-03-14T04:52:57;98954.03;;;15.41;71.70
21706;BME280;11014;53.076;18.208;2023-03-14T04:55:28;98952.88;;;15.48;71.28
21706;BME280;11014;53.076;18.208;2023-03-14T04:57:58;98959.34;;;15.33;71.09
21706;BME280;11014;53.076;18.208;2023-03-14T05:00:27;98943.13;;;15.19;71.45
21706;BME280;11014;53.076;18.208;2023-03-14T05:03:19;98952.53;;;15.22;71.18
21706;BME280;11014;53.076;18.208;2023-03-14T05:06:06;98965.09;;;15.18;71.16
21706;BME280;11014;53.076;18.208;2023-03-14T05:08:42;98973.91;;;15.10;71.08
21706;BME280;11014;53.076;18.208;2023-03-14T05:11:34;98954.84;;;15.01;70.96
21706;BME280;11014;53.076;18.208;2023-03-14T05:14:16;98946.53;;;15.11;70.20
21706;BME280;11014;53.076;18.208;2023-03-14T05:17:21;98929.72;;;15.14;69.87
21706;BME280;11014;53.076;18.208;2023-03-14T05:20:18;98946.16;;;15.04;69.25
21706;BME280;11014;53.076;18.208;2023-03-14T05:23:00;98947.53;;;14.88;69.77
21706;BME280;11014;53.076;18.208;2023-03-14T05:25:52;98966.97;;;14.90;69.28
21706;BME280;11014;53.076;18.208;2023-03-14T05:28:43;98962.16;;;14.87;69.31
21706;BME280;11014;53.076;18.208;2023-03-14T05:31:34;98940.53;;;14.87;68.82
21706;BME280;11014;53.076;18.208;2023-03-14T05:34:06;98962.16;;;14.87;68.85
21706;BME280;11014;53.076;18.208;2023-03-14T05:36:46;98951.66;;;14.86;68.93
21706;BME280;11014;53.076;18.208;2023-03-14T05:39:35;98948.63;;;14.87;68.40
21706;BME280;11014;53.076;18.208;2023-03-14T05:42:26;98938.00;;;14.77;68.13
21706;BME280;11014;53.076;18.208;2023-03-14T05:45:06;98944.91;;;14.69;67.81
21706;BME280;11014;53.076;18.208;2023-03-14T05:47:53;98949.09;;;14.62;67.78
21706;BME280;11014;53.076;18.208;2023-03-14T05:51:16;98941.28;;;14.60;67.18
21706;BME280;11014;53.076;18.208;2023-03-14T05:54:07;98953.88;;;14.51;67.32
21706;BME280;11014;53.076;18.208;2023-03-14T05:57:08;98934.31;;;14.41;67.16
21706;BME280;11014;53.076;18.208;2023-03-14T05:59:56;98953.31;;;14.36;66.77
21706;BME280;11014;53.076;18.208;2023-03-14T06:02:39;98958.41;;;14.37;66.59
21706;BME280;11014;53.076;18.208;2023-03-14T06:05:19;98963.13;;;14.32;66.36
21706;BME280;11014;53.076;18.208;2023-03-14T06:07:48;98955.84;;;14.46;66.06
21706;BME280;11014;53.076;18.208;2023-03-14T06:10:17;98950.66;;;14.49;65.72
21706;BME280;11014;53.076;18.208;2023-03-14T06:12:45;98963.44;;;14.44;65.46
21706;BME280;11014;53.076;18.208;2023-03-14T06:15:14;98951.56;;;14.45;65.15
21706;BME280;11014;53.076;18.208;2023-03-14T06:17:45;98960.25;;;14.42;65.12
21706;BME280;11014;53.076;18.208;2023-03-14T06:20:14;98972.13;;;14.41;65.00
21706;BME280;11014;53.076;18.208;2023-03-14T06:23:08;98969.53;;;14.36;64.53
21706;BME280;11014;53.076;18.208;2023-03-14T06:25:37;98959.75;;;14.40;64.29
21706;BME280;11014;53.076;18.208;2023-03-14T06:28:31;98959.06;;;14.48;64.31
21706;BME280;11014;53.076;18.208;2023-03-14T06:31:03;98948.84;;;14.45;63.90
21706;BME280;11014;53.076;18.208;2023-03-14T06:33:39;98966.16;;;14.44;63.80
21706;BME280;11014;53.076;18.208;2023-03-14T06:36:09;98960.75;;;14.44;64.08
21706;BME280;11014;53.076;18.208;2023-03-14T06:38:40;98953.78;;;14.56;63.51
21706;BME280;11014;53.076;18.208;2023-03-14T06:41:09;98958.31;;;14.61;63.46
21706;BME280;11014;53.076;18.208;2023-03-14T06:43:41;98956.59;;;14.65;62.99
21706;BME280;11014;53.076;18.208;2023-03-14T06:46:11;98957.31;;;14.70;63.16
21706;BME280;11014;53.076;18.208;2023-03-14T06:48:41;98949.50;;;14.69;62.78
21706;BME280;11014;53.076;18.208;2023-03-14T06:51:10;98953.16;;;14.78;62.76
21706;BME280;11014;53.076;18.208;2023-03-14T06:53:39;98963.44;;;14.76;62.52
21706;BME280;11014;53.076;18.208;2023-03-14T06:56:11;98970.44;;;14.77;62.54
21706;BME280;11014;53.076;18.208;2023-03-14T06:58:40;98972.66;;;14.75;62.35
21706;BME280;11014;53.076;18.208;2023-03-14T07:01:23;98967.16;;;14.80;62.33
21706;BME280;11014;53.076;18.208;2023-03-14T07:03:54;98961.75;;;14.80;61.95
21706;BME280;11014;53.076;18.208;2023-03-14T07:06:24;98986.19;;;14.89;62.21
21706;BME280;11014;53.076;18.208;2023-03-14T07:11:45;99004.22;;;15.07;61.96
21706;BME280;11014;53.076;18.208;2023-03-14T07:14:15;98988.22;;;15.10;61.54
21706;BME280;11014;53.076;18.208;2023-03-14T07:16:44;98986.50;;;15.14;61.24
21706;BME280;11014;53.076;18.208;2023-03-14T07:19:13;98973.69;;;15.20;61.29
21706;BME280;11014;53.076;18.208;2023-03-14T07:21:42;98983.00;;;15.27;61.01
21706;BME280;11014;53.076;18.208;2023-03-14T07:24:13;98963.78;;;15.29;60.89
21706;BME280;11014;53.076;18.208;2023-03-14T07:26:42;98963.28;;;15.40;60.86
21706;BME280;11014;53.076;18.208;2023-03-14T07:29:11;98950.25;;;15.42;60.21
21706;BME280;11014;53.076;18.208;2023-03-14T07:31:41;98975.22;;;15.53;60.32
21706;BME280;11014;53.076;18.208;2023-03-14T07:34:10;98969.00;;;15.53;59.37
21706;BME280;11014;53.076;18.208;2023-03-14T07:36:43;98967.00;;;15.58;59.69
21706;BME280;11014;53.076;18.208;2023-03-14T07:39:11;98974.91;;;15.55;59.43
21706;BME280;11014;53.076;18.208;2023-03-14T07:42:00;98984.22;;;15.62;59.04
21706;BME280;11014;53.076;18.208;2023-03-14T07:44:32;98975.81;;;15.64;59.29
21706;BME280;11014;53.076;18.208;2023-03-14T07:47:01;98978.63;;;15.59;59.32
21706;BME280;11014;53.076;18.208;2023-03-14T07:49:29;98975.19;;;15.67;59.25
21706;BME280;11014;53.076;18.208;2023-03-14T07:51:58;98954.75;;;15.61;59.52
21706;BME280;11014;53.076;18.208;2023-03-14T07:54:27;98960.16;;;15.61;59.38
21706;BME280;11014;53.076;18.208;2023-03-14T07:56:56;98957.34;;;15.66;59.07
21706;BME280;11014;53.076;18.208;2023-03-14T07:59:27;98955.66;;;15.70;59.16
21706;BME280;11014;53.076;18.208;2023-03-14T08:01:56;98956.75;;;15.69;59.57
21706;BME280;11014;53.076;18.208;2023-03-14T08:04:24;98945.81;;;15.74;59.41
21706;BME280;11014;53.076;18.208;2023-03-14T08:06:53;98947.41;;;15.75;58.96
21706;BME280;11014;53.076;18.208;2023-03-14T08:09:22;98933.88;;;15.75;59.37
21706;BME280;11014;53.076;18.208;2023-03-14T08:11:53;98941.59;;;15.81;59.53
21706;BME280;11014;53.076;18.208;2023-03-14T08:14:21;98937.84;;;15.91;59.34
21706;BME280;11014;53.076;18.208;2023-03-14T08:16:52;98940.47;;;15.82;59.51
21706;BME280;11014;53.076;18.208;2023-03-14T08:19:20;98935.84;;;15.83;59.53
21706;BME280;11014;53.076;18.208;2023-03-14T08:21:49;98927.94;;;15.86;59.75
21706;BME280;11014;53.076;18.208;2023-03-14T08:24:17;98934.03;;;15.92;59.54
21706;BME280;11014;53.076;18.208;2023-03-14T08:26:46;98930.59;;;16.00;59.70
21706;BME280;11014;53.076;18.208;2023-03-14T08:29:15;98939.81;;;15.99;59.51
21706;BME280;11014;53.076;18.208;2023-03-14T08:31:43;98936.00;;;16.00;59.75
21706;BME280;11014;53.076;18.208;2023-03-14T08:34:12;98939.41;;;16.06;59.46
21706;BME280;11014;53.076;18.208;2023-03-14T08:36:41;98940.22;;;16.06;59.64
21706;BME280;11014;53.076;18.208;2023-03-14T08:39:10;98928.88;;;16.26;59.76
21706;BME280;11014;53.076;18.208;2023-03-14T08:41:39;98934.41;;;16.43;59.25
21706;BME280;11014;53.076;18.208;2023-03-14T08:44:11;98930.47;;;16.27;59.29
21706;BME280;11014;53.076;18.208;2023-03-14T08:46:41;98940.94;;;16.42;59.20
21706;BME280;11014;53.076;18.208;2023-03-14T08:49:09;98937.75;;;16.18;59.39
21706;BME280;11014;53.076;18.208;2023-03-14T08:51:38;98934.66;;;16.33;59.57
21706;BME280;11014;53.076;18.208;2023-03-14T08:54:10;98944.38;;;16.34;59.26
21706;BME280;11014;53.076;18.208;2023-03-14T08:56:38;98956.47;;;16.28;59.32
21706;BME280;11014;53.076;18.208;2023-03-14T08:59:07;98958.44;;;16.36;59.49
21706;BME280;11014;53.076;18.208;2023-03-14T09:01:36;98964.47;;;16.33;59.11
21706;BME280;11014;53.076;18.208;2023-03-14T09:04:05;98974.50;;;16.11;59.75
21706;BME280;11014;53.076;18.208;2023-03-14T09:06:35;98993.59;;;15.92;59.85
21706;BME280;11014;53.076;18.208;2023-03-14T09:09:03;98984.28;;;16.20;59.80
21706;BME280;11014;53.076;18.208;2023-03-14T09:11:32;98981.94;;;16.27;59.81
21706;BME280;11014;53.076;18.208;2023-03-14T09:14:01;98975.06;;;16.43;59.51
21706;BME280;11014;53.076;18.208;2023-03-14T09:16:29;98968.09;;;16.51;59.07
21706;BME280;11014;53.076;18.208;2023-03-14T09:18:58;98972.38;;;16.66;58.68
21706;BME280;11014;53.076;18.208;2023-03-14T09:21:28;98966.56;;;16.58;58.57
21706;BME280;11014;53.076;18.208;2023-03-14T09:23:56;98955.03;;;16.75;58.74
21706;BME280;11014;53.076;18.208;2023-03-14T09:26:26;98955.63;;;16.64;58.45
21706;BME280;11014;53.076;18.208;2023-03-14T09:28:54;98959.78;;;16.70;58.49
21706;BME280;11014;53.076;18.208;2023-03-14T09:31:26;98962.13;;;16.40;58.58
21706;BME280;11014;53.076;18.208;2023-03-14T09:33:55;98944.28;;;16.62;58.40
21706;BME280;11014;53.076;18.208;2023-03-14T09:36:24;98955.25;;;16.87;57.90
21706;BME280;11014;53.076;18.208;2023-03-14T09:38:52;98949.31;;;17.07;57.51
21706;BME280;11014;53.076;18.208;2023-03-14T09:41:25;98956.78;;;17.02;57.46
21706;BME280;11014;53.076;18.208;2023-03-14T09:44:05;98941.81;;;17.13;57.08
21706;BME280;11014;53.076;18.208;2023-03-14T09:46:36;98950.59;;;17.18;56.40
21706;BME280;11014;53.076;18.208;2023-03-14T09:49:27;98974.72;;;17.20;56.45
21706;BME280;11014;53.076;18.208;2023-03-14T09:51:59;98961.38;;;17.41;56.20
21706;BME280;11014;53.076;18.208;2023-03-14T09:54:35;98962.94;;;17.33;56.08
21706;BME280;11014;53.076;18.208;2023-03-14T09:57:08;98952.44;;;17.40;55.48
21706;BME280;11014;53.076;18.208;2023-03-14T09:59:39;98960.91;;;17.47;55.76
21706;BME280;11014;53.076;18.208;2023-03-14T10:02:20;98952.94;;;17.51;55.75
21706;BME280;11014;53.076;18.208;2023-03-14T10:04:52;98942.66;;;17.79;55.43
21706;BME280;11014;53.076;18.208;2023-03-14T10:07:29;98942.81;;;17.99;55.15
21706;BME280;11014;53.076;18.208;2023-03-14T10:09:58;98944.72;;;17.90;54.84
21706;BME280;11014;53.076;18.208;2023-03-14T10:12:33;98940.72;;;17.88;54.41
21706;BME280;11014;53.076;18.208;2023-03-14T10:15:14;98952.78;;;17.47;55.20
21706;BME280;11014;53.076;18.208;2023-03-14T10:17:48;98948.53;;;17.63;55.73
21706;BME280;11014;53.076;18.208;2023-03-14T10:20:34;98942.47;;;17.75;54.64
21706;BME280;11014;53.076;18.208;2023-03-14T10:23:22;98961.06;;;17.42;54.99
21706;BME280;11014;53.076;18.208;2023-03-14T10:26:07;98938.38;;;17.38;55.38
21706;BME280;11014;53.076;18.208;2023-03-14T10:28:47;98951.53;;;17.53;54.82
21706;BME280;11014;53.076;18.208;2023-03-14T10:31:15;98948.59;;;17.41;55.52
21706;BME280;11014;53.076;18.208;2023-03-14T10:34:01;98959.69;;;17.14;55.26
21706;BME280;11014;53.076;18.208;2023-03-14T10:36:32;98955.63;;;17.42;55.48
21706;BME280;11014;53.076;18.208;2023-03-14T10:42:20;98946.25;;;17.57;54.47
21706;BME280;11014;53.076;18.208;2023-03-14T10:45:28;98939.56;;;17.54;54.75
21706;BME280;11014;53.076;18.208;2023-03-14T10:48:18;98948.13;;;17.39;54.75
21706;BME280;11014;53.076;18.208;2023-03-14T10:50:56;98939.84;;;17.53;55.21
21706;BME280;11014;53.076;18.208;2023-03-14T10:53:26;98940.81;;;17.48;54.75
21706;BME280;11014;53.076;18.208;2023-03-14T10:55:55;98944.97;;;17.54;54.61
21706;BME280;11014;53.076;18.208;2023-03-14T10:58:28;98945.97;;;17.67;54.59
21706;BME280;11014;53.076;18.208;2023-03-14T11:01:09;98953.78;;;17.68;54.53
21706;BME280;11014;53.076;18.208;2023-03-14T11:03:49;98949.19;;;17.21;54.97
21706;BME280;11014;53.076;18.208;2023-03-14T11:06:38;98948.53;;;17.24;55.38
21706;BME280;11014;53.076;18.208;2023-03-14T11:09:18;98960.53;;;17.23;54.55
21706;BME280;11014;53.076;18.208;2023-03-14T11:11:50;98954.66;;;17.38;54.62
21706;BME280;11014;53.076;18.208;2023-03-14T11:14:43;98956.97;;;17.53;54.41
21706;BME280;11014;53.076;18.208;2023-03-14T11:18:04;98953.00;;;17.20;54.63
21706;BME280;11014;53.076;18.208;2023-03-14T11:26:55;98957.56;;;17.50;54.54
21706;BME280;11014;53.076;18.208;2023-03-14T11:32:41;98963.53;;;17.22;54.30
21706;BME280;11014;53.076;18.208;2023-03-14T11:35:24;98958.34;;;17.42;54.33
21706;BME280;11014;53.076;18.208;2023-03-14T11:38:01;98969.59;;;17.58;53.82
21706;BME280;11014;53.076;18.208;2023-03-14T11:40:33;98967.69;;;17.67;53.65
21706;BME280;11014;53.076;18.208;2023-03-14T11:43:13;98962.28;;;17.84;53.74
21706;BME280;11014;53.076;18.208;2023-03-14T11:45:44;98952.22;;;17.85;53.41
21706;BME280;11014;53.076;18.208;2023-03-14T11:48:17;98961.34;;;17.89;53.12
21706;BME280;11014;53.076;18.208;2023-03-14T11:57:05;98955.13;;;17.97;52.75
21706;BME280;11014;53.076;18.208;2023-03-14T11:59:58;98956.88;;;18.18;52.70
21706;BME280;11014;53.076;18.208;2023-03-14T12:02:54;98962.13;;;18.15;52.93
21706;BME280;11014;53.076;18.208;2023-03-14T12:08:49;98956.88;;;18.01;52.48
21706;BME280;11014;53.076;18.208;2023-03-14T12:14:28;98945.19;;;18.18;51.86
21706;BME280;11014;53.076;18.208;2023-03-14T12:17:44;98938.47;;;18.41;51.46
21706;BME280;11014;53.076;18.208;2023-03-14T12:20:25;98946.63;;;18.07;50.70
21706;BME280;11014;53.076;18.208;2023-03-14T12:22:56;98939.13;;;17.95;51.91
21706;BME280;11014;53.076;18.208;2023-03-14T12:25:31;98936.56;;;18.16;51.69
21706;BME280;11014;53.076;18.208;2023-03-14T12:30:43;98922.78;;;18.55;50.89
21706;BME280;11014;53.076;18.208;2023-03-14T12:35:59;98932.81;;;18.72;50.07
21706;BME280;11014;53.076;18.208;2023-03-14T12:39:00;98932.97;;;18.75;50.48
21706;BME280;11014;53.076;18.208;2023-03-14T12:41:44;98926.59;;;18.71;50.24
21706;BME280;11014;53.076;18.208;2023-03-14T12:44:52;98914.72;;;18.84;50.12
21706;BME280;11014;53.076;18.208;2023-03-14T12:49:52;98918.47;;;18.37;50.77
21706;BME280;11014;53.076;18.208;2023-03-14T13:01:17;98909.06;;;18.09;51.24
21706;BME280;11014;53.076;18.208;2023-03-14T13:03:53;98914.84;;;18.16;51.38
21706;BME280;11014;53.076;18.208;2023-03-14T13:06:50;98907.47;;;18.25;51.11
21706;BME280;11014;53.076;18.208;2023-03-14T13:11:55;98909.06;;;18.17;51.32
21706;BME280;11014;53.076;18.208;2023-03-14T13:14:27;98907.97;;;18.10;51.27
21706;BME280;11014;53.076;18.208;2023-03-14T13:16:59;98897.91;;;18.19;51.28
21706;BME280;11014;53.076;18.208;2023-03-14T13:19:52;98903.59;;;18.43;51.18
21706;BME280;11014;53.076;18.208;2023-03-14T13:22:27;98894.94;;;18.58;50.73
21706;BME280;11014;53.076;18.208;2023-03-14T13:25:02;98895.91;;;18.62;50.43
21706;BME280;11014;53.076;18.208;2023-03-14T13:27:34;98900.75;;;18.48;50.96
21706;BME280;11014;53.076;18.208;2023-03-14T13:32:43;98905.41;;;18.30;51.03
21706;BME280;11014;53.076;18.208;2023-03-14T13:35:39;98901.09;;;18.21;51.01
21706;BME280;11014;53.076;18.208;2023-03-14T13:38:20;98891.00;;;18.21;51.18
21706;BME280;11014;53.076;18.208;2023-03-14T13:40:51;98901.91;;;17.96;51.11
21706;BME280;11014;53.076;18.208;2023-03-14T13:43:36;98915.00;;;18.02;51.54
21706;BME280;11014;53.076;18.208;2023-03-14T13:46:12;98914.34;;;17.80;51.07
21706;BME280;11014;53.076;18.208;2023-03-14T13:48:58;98910.38;;;17.86;51.39
21706;BME280;11014;53.076;18.208;2023-03-14T13:51:29;98913.41;;;17.93;51.40
21706;BME280;11014;53.076;18.208;2023-03-14T13:54:00;98916.59;;;17.86;51.82
21706;BME280;11014;53.076;18.208;2023-03-14T13:56:32;98913.41;;;17.93;51.46
21706;BME280;11014;53.076;18.208;2023-03-14T13:59:01;98910.38;;;18.03;51.42
21706;BME280;11014;53.076;18.208;2023-03-14T14:01:37;98902.22;;;17.86;51.52
21706;BME280;11014;53.076;18.208;2023-03-14T14:04:08;98902.38;;;17.81;51.48
21706;BME280;11014;53.076;18.208;2023-03-14T14:06:44;98904.13;;;17.85;51.45
21706;BME280;11014;53.076;18.208;2023-03-14T14:09:20;98890.38;;;17.90;51.56
21706;BME280;11014;53.076;18.208;2023-03-14T14:14:49;98899.97;;;17.88;51.61
21706;BME280;11014;53.076;18.208;2023-03-14T14:17:28;98904.78;;;17.99;51.45
21706;BME280;11014;53.076;18.208;2023-03-14T14:20:00;98902.53;;;18.01;51.50
21706;BME280;11014;53.076;18.208;2023-03-14T14:22:34;98889.91;;;17.97;51.57
21706;BME280;11014;53.076;18.208;2023-03-14T14:25:03;98895.34;;;17.97;51.50